Sterrenberg, Netherlands
Current Conditions -  °F | °C
As of 8:25 PM on Friday 31 Oct 2014 (Local Time) from EHDL Reporting Station
Haze Haze  
Wind Chill: 57°   Ceiling: Unl
Heat Index: 57°   Visibility: 6mi
Dew Point: 55°   Wind: 5mph
Humidity: 94%   Direction: 150°SSE
Pressure: 30.12"   Gusts: NA
Location:  51.99°N, 5.88°E
Report Text: EHDL 311925Z AUTO 15004KT 9000 BR NCD 14/13 Q1020 BLU
Loading
Personal Weather Stations






























Interactive Weather Map
Tropical Storm Tracking
New forecast layout! Learn more

10-Day Weather Forecast

Advertisements
Track Severe Weather on mobile